sensor_id;sensor_type;location;lat;lon;timestamp;pressure;altitude;pressure_sealevel;temperature;humidity
67840;BME280;54636;51.684;5.142;2022-08-21T00:00:22;101707.63;;;13.89;92.85
67840;BME280;54636;51.684;5.142;2022-08-21T00:02:54;101683.56;;;13.67;92.99
67840;BME280;54636;51.684;5.142;2022-08-21T00:05:21;101711.78;;;13.84;92.59
67840;BME280;54636;51.684;5.142;2022-08-21T00:07:46;101708.59;;;13.85;92.38
67840;BME280;54636;51.684;5.142;2022-08-21T00:10:13;101664.91;;;13.60;92.37
67840;BME280;54636;51.684;5.142;2022-08-21T00:12:39;101690.78;;;13.70;92.66
67840;BME280;54636;51.684;5.142;2022-08-21T00:15:07;101718.81;;;13.91;92.65
67840;BME280;54636;51.684;5.142;2022-08-21T00:17:36;101711.25;;;13.80;93.33
67840;BME280;54636;51.684;5.142;2022-08-21T00:20:05;101700.53;;;13.76;92.90
67840;BME280;54636;51.684;5.142;2022-08-21T00:22:31;101744.31;;;14.08;90.77
67840;BME280;54636;51.684;5.142;2022-08-21T00:24:56;101714.47;;;13.78;92.68
67840;BME280;54636;51.684;5.142;2022-08-21T00:27:22;101738.19;;;13.93;93.70
67840;BME280;54636;51.684;5.142;2022-08-21T00:29:47;101648.53;;;13.39;93.71
67840;BME280;54636;51.684;5.142;2022-08-21T00:32:19;101681.56;;;13.62;93.91
67840;BME280;54636;51.684;5.142;2022-08-21T00:34:45;101657.75;;;13.42;93.62
67840;BME280;54636;51.684;5.142;2022-08-21T00:37:10;101694.00;;;13.68;93.98
67840;BME280;54636;51.684;5.142;2022-08-21T00:39:36;101713.59;;;13.67;94.37
67840;BME280;54636;51.684;5.142;2022-08-21T00:42:02;101732.88;;;13.83;94.61
67840;BME280;54636;51.684;5.142;2022-08-21T00:44:28;101722.13;;;13.74;94.28
67840;BME280;54636;51.684;5.142;2022-08-21T00:46:53;101652.09;;;13.25;94.84
67840;BME280;54636;51.684;5.142;2022-08-21T00:49:18;101651.00;;;13.17;94.75
67840;BME280;54636;51.684;5.142;2022-08-21T00:51:51;101691.72;;;13.41;94.72
67840;BME280;54636;51.684;5.142;2022-08-21T00:54:19;101668.19;;;13.23;95.12
67840;BME280;54636;51.684;5.142;2022-08-21T00:56:48;101703.66;;;13.43;95.42
67840;BME280;54636;51.684;5.142;2022-08-21T00:59:18;101660.88;;;13.14;95.39
67840;BME280;54636;51.684;5.142;2022-08-21T01:01:44;101648.94;;;13.12;95.09
67840;BME280;54636;51.684;5.142;2022-08-21T01:04:11;101730.22;;;13.63;95.72
67840;BME280;54636;51.684;5.142;2022-08-21T01:06:36;101720.19;;;13.55;95.35
67840;BME280;54636;51.684;5.142;2022-08-21T01:09:02;101724.97;;;13.60;95.48
67840;BME280;54636;51.684;5.142;2022-08-21T01:11:28;101687.22;;;13.38;95.62
67840;BME280;54636;51.684;5.142;2022-08-21T01:13:53;101672.09;;;13.16;95.69
67840;BME280;54636;51.684;5.142;2022-08-21T01:16:21;101696.09;;;13.33;95.98
67840;BME280;54636;51.684;5.142;2022-08-21T01:18:50;101703.13;;;13.39;95.88
67840;BME280;54636;51.684;5.142;2022-08-21T01:21:23;101676.78;;;13.16;96.25
67840;BME280;54636;51.684;5.142;2022-08-21T01:23:52;101696.78;;;13.28;96.38
67840;BME280;54636;51.684;5.142;2022-08-21T01:26:21;101645.47;;;12.91;96.20
67840;BME280;54636;51.684;5.142;2022-08-21T01:29:01;101692.56;;;13.27;96.21
67840;BME280;54636;51.684;5.142;2022-08-21T01:31:28;101681.66;;;13.12;96.40
67840;BME280;54636;51.684;5.142;2022-08-21T01:33:56;101653.38;;;12.89;96.19
67840;BME280;54636;51.684;5.142;2022-08-21T01:36:23;101689.03;;;13.06;96.87
67840;BME280;54636;51.684;5.142;2022-08-21T01:38:48;101664.97;;;12.84;96.63
67840;BME280;54636;51.684;5.142;2022-08-21T01:41:14;101695.97;;;13.07;97.59
67840;BME280;54636;51.684;5.142;2022-08-21T01:43:42;101682.22;;;12.96;97.82
67840;BME280;54636;51.684;5.142;2022-08-21T01:46:08;101655.69;;;12.76;98.25
67840;BME280;54636;51.684;5.142;2022-08-21T01:48:34;101670.13;;;12.82;98.09
67840;BME280;54636;51.684;5.142;2022-08-21T01:51:00;101672.38;;;12.83;98.30
67840;BME280;54636;51.684;5.142;2022-08-21T01:53:26;101671.28;;;12.75;98.24
67840;BME280;54636;51.684;5.142;2022-08-21T01:55:52;101646.88;;;12.66;98.29
67840;BME280;54636;51.684;5.142;2022-08-21T01:58:18;101694.34;;;12.95;98.16
67840;BME280;54636;51.684;5.142;2022-08-21T02:00:43;101648.47;;;12.58;98.51
67840;BME280;54636;51.684;5.142;2022-08-21T02:03:09;101698.78;;;12.92;98.21
67840;BME280;54636;51.684;5.142;2022-08-21T02:05:34;101658.63;;;12.58;98.13
67840;BME280;54636;51.684;5.142;2022-08-21T02:08:00;101713.03;;;13.02;98.33
67840;BME280;54636;51.684;5.142;2022-08-21T02:10:28;101719.97;;;13.03;99.07
67840;BME280;54636;51.684;5.142;2022-08-21T02:12:55;101705.94;;;12.90;98.80
67840;BME280;54636;51.684;5.142;2022-08-21T02:15:22;101669.41;;;12.67;98.80
67840;BME280;54636;51.684;5.142;2022-08-21T02:17:54;101636.38;;;12.44;98.95
67840;BME280;54636;51.684;5.142;2022-08-21T02:20:32;101648.69;;;12.54;99.26
67840;BME280;54636;51.684;5.142;2022-08-21T02:22:58;101710.72;;;12.95;99.05
67840;BME280;54636;51.684;5.142;2022-08-21T02:25:26;101666.88;;;12.63;98.97
67840;BME280;54636;51.684;5.142;2022-08-21T02:27:52;101642.13;;;12.46;99.19
67840;BME280;54636;51.684;5.142;2022-08-21T02:30:31;101648.59;;;12.49;98.94
67840;BME280;54636;51.684;5.142;2022-08-21T02:32:58;101667.16;;;12.65;98.94
67840;BME280;54636;51.684;5.142;2022-08-21T02:35:24;101674.59;;;12.65;99.44
67840;BME280;54636;51.684;5.142;2022-08-21T02:37:52;101674.97;;;12.58;99.50
67840;BME280;54636;51.684;5.142;2022-08-21T02:40:20;101637.81;;;12.40;99.60
67840;BME280;54636;51.684;5.142;2022-08-21T02:42:46;101660.31;;;12.55;99.80
67840;BME280;54636;51.684;5.142;2022-08-21T02:45:13;101633.72;;;12.30;99.57
67840;BME280;54636;51.684;5.142;2022-08-21T02:47:39;101655.94;;;12.43;99.60
67840;BME280;54636;51.684;5.142;2022-08-21T02:50:07;101696.41;;;12.65;99.96
67840;BME280;54636;51.684;5.142;2022-08-21T02:52:32;101620.84;;;12.15;99.96
67840;BME280;54636;51.684;5.142;2022-08-21T02:54:59;101626.97;;;12.10;99.98
67840;BME280;54636;51.684;5.142;2022-08-21T02:57:24;101685.78;;;12.52;99.94
67840;BME280;54636;51.684;5.142;2022-08-21T02:59:50;101646.38;;;12.33;100.00
67840;BME280;54636;51.684;5.142;2022-08-21T03:02:15;101698.00;;;12.57;99.97
67840;BME280;54636;51.684;5.142;2022-08-21T03:04:41;101698.19;;;12.53;100.00
67840;BME280;54636;51.684;5.142;2022-08-21T03:07:06;101664.63;;;12.27;100.00
67840;BME280;54636;51.684;5.142;2022-08-21T03:09:32;101656.16;;;12.25;100.00
67840;BME280;54636;51.684;5.142;2022-08-21T03:11:57;101687.13;;;12.42;100.00
67840;BME280;54636;51.684;5.142;2022-08-21T03:14:23;101654.56;;;12.18;100.00
67840;BME280;54636;51.684;5.142;2022-08-21T03:16:48;101641.34;;;12.11;100.00
67840;BME280;54636;51.684;5.142;2022-08-21T03:19:14;101615.03;;;11.93;100.00
67840;BME280;54636;51.684;5.142;2022-08-21T03:21:40;101607.25;;;11.86;100.00
67840;BME280;54636;51.684;5.142;2022-08-21T03:24:06;101671.38;;;12.31;100.00
67840;BME280;54636;51.684;5.142;2022-08-21T03:26:32;101583.28;;;11.75;100.00
67840;BME280;54636;51.684;5.142;2022-08-21T03:28:58;101636.06;;;12.07;100.00
67840;BME280;54636;51.684;5.142;2022-08-21T03:31:24;101592.22;;;11.76;100.00
67840;BME280;54636;51.684;5.142;2022-08-21T03:33:54;101635.97;;;12.02;100.00
67840;BME280;54636;51.684;5.142;2022-08-21T03:36:20;101583.69;;;11.68;100.00
67840;BME280;54636;51.684;5.142;2022-08-21T03:38:46;101631.84;;;11.92;100.00
67840;BME280;54636;51.684;5.142;2022-08-21T03:41:11;101585.28;;;11.60;100.00
67840;BME280;54636;51.684;5.142;2022-08-21T03:43:37;101654.38;;;12.07;100.00
67840;BME280;54636;51.684;5.142;2022-08-21T03:46:04;101597.00;;;11.66;100.00
67840;BME280;54636;51.684;5.142;2022-08-21T03:48:31;101614.84;;;11.82;100.00
67840;BME280;54636;51.684;5.142;2022-08-21T03:50:56;101605.53;;;11.74;100.00
67840;BME280;54636;51.684;5.142;2022-08-21T03:53:22;101590.34;;;11.67;100.00
67840;BME280;54636;51.684;5.142;2022-08-21T03:55:49;101655.88;;;12.08;100.00
67840;BME280;54636;51.684;5.142;2022-08-21T03:58:17;101601.53;;;11.69;100.00
67840;BME280;54636;51.684;5.142;2022-08-21T04:00:45;101630.81;;;11.89;100.00
67840;BME280;54636;51.684;5.142;2022-08-21T04:03:11;101609.47;;;11.73;100.00
67840;BME280;54636;51.684;5.142;2022-08-21T04:05:36;101669.69;;;12.04;100.00
67840;BME280;54636;51.684;5.142;2022-08-21T04:08:04;101643.13;;;11.84;100.00
67840;BME280;54636;51.684;5.142;2022-08-21T04:10:32;101596.44;;;11.47;100.00
67840;BME280;54636;51.684;5.142;2022-08-21T04:12:59;101628.91;;;11.66;100.00
67840;BME280;54636;51.684;5.142;2022-08-21T04:15:25;101657.38;;;11.79;100.00
67840;BME280;54636;51.684;5.142;2022-08-21T04:17:52;101654.81;;;11.76;100.00
67840;BME280;54636;51.684;5.142;2022-08-21T04:20:19;101631.16;;;11.52;100.00
67840;BME280;54636;51.684;5.142;2022-08-21T04:22:45;101683.75;;;11.88;100.00
67840;BME280;54636;51.684;5.142;2022-08-21T04:25:12;101612.34;;;11.40;100.00
67840;BME280;54636;51.684;5.142;2022-08-21T04:27:38;101610.28;;;11.35;100.00
67840;BME280;54636;51.684;5.142;2022-08-21T04:30:05;101644.75;;;11.52;100.00
67840;BME280;54636;51.684;5.142;2022-08-21T04:32:33;101629.06;;;11.47;100.00
67840;BME280;54636;51.684;5.142;2022-08-21T04:35:02;101637.59;;;11.40;100.00
67840;BME280;54636;51.684;5.142;2022-08-21T04:37:29;101677.00;;;11.83;100.00
67840;BME280;54636;51.684;5.142;2022-08-21T04:39:55;101634.06;;;11.49;100.00
67840;BME280;54636;51.684;5.142;2022-08-21T04:42:26;101608.97;;;11.30;100.00
67840;BME280;54636;51.684;5.142;2022-08-21T04:44:52;101684.88;;;11.81;100.00
67840;BME280;54636;51.684;5.142;2022-08-21T04:47:18;101620.91;;;11.47;100.00
67840;BME280;54636;51.684;5.142;2022-08-21T04:49:44;101635.84;;;11.52;100.00
67840;BME280;54636;51.684;5.142;2022-08-21T04:52:10;101647.97;;;11.66;100.00
67840;BME280;54636;51.684;5.142;2022-08-21T04:54:36;101685.53;;;11.91;100.00
67840;BME280;54636;51.684;5.142;2022-08-21T04:57:06;101645.44;;;11.62;100.00
67840;BME280;54636;51.684;5.142;2022-08-21T04:59:39;101650.41;;;11.64;100.00
67840;BME280;54636;51.684;5.142;2022-08-21T05:02:07;101670.97;;;11.79;100.00
67840;BME280;54636;51.684;5.142;2022-08-21T05:04:40;101646.00;;;11.66;100.00
67840;BME280;54636;51.684;5.142;2022-08-21T05:07:15;101634.34;;;11.66;100.00
67840;BME280;54636;51.684;5.142;2022-08-21T05:09:49;101636.63;;;11.67;100.00
67840;BME280;54636;51.684;5.142;2022-08-21T05:12:15;101621.13;;;11.59;100.00
67840;BME280;54636;51.684;5.142;2022-08-21T05:14:40;101681.41;;;11.96;100.00
67840;BME280;54636;51.684;5.142;2022-08-21T05:17:07;101677.00;;;11.98;100.00
67840;BME280;54636;51.684;5.142;2022-08-21T05:19:34;101709.59;;;12.22;100.00
67840;BME280;54636;51.684;5.142;2022-08-21T05:21:59;101690.81;;;12.09;100.00
67840;BME280;54636;51.684;5.142;2022-08-21T05:24:26;101672.88;;;12.17;100.00
67840;BME280;54636;51.684;5.142;2022-08-21T05:26:52;101718.47;;;13.02;100.00
67840;BME280;54636;51.684;5.142;2022-08-21T05:29:21;101645.19;;;13.50;100.00
67840;BME280;54636;51.684;5.142;2022-08-21T05:31:47;101644.66;;;14.35;97.23
67840;BME280;54636;51.684;5.142;2022-08-21T05:34:14;101662.66;;;14.84;91.28
67840;BME280;54636;51.684;5.142;2022-08-21T05:36:40;101730.44;;;15.11;90.54
67840;BME280;54636;51.684;5.142;2022-08-21T05:39:05;101704.72;;;14.55;91.82
67840;BME280;54636;51.684;5.142;2022-08-21T05:41:31;101691.88;;;14.04;93.37
67840;BME280;54636;51.684;5.142;2022-08-21T05:43:59;101672.69;;;13.72;95.12
67840;BME280;54636;51.684;5.142;2022-08-21T05:46:25;101645.00;;;13.33;96.18
67840;BME280;54636;51.684;5.142;2022-08-21T05:48:50;101695.13;;;13.56;97.13
67840;BME280;54636;51.684;5.142;2022-08-21T05:51:16;101657.22;;;13.17;98.28
67840;BME280;54636;51.684;5.142;2022-08-21T05:53:42;101648.94;;;13.12;98.86
67840;BME280;54636;51.684;5.142;2022-08-21T05:56:08;101675.16;;;13.24;99.62
67840;BME280;54636;51.684;5.142;2022-08-21T05:58:34;101656.16;;;13.15;100.00
67840;BME280;54636;51.684;5.142;2022-08-21T06:01:01;101654.19;;;13.15;100.00
67840;BME280;54636;51.684;5.142;2022-08-21T06:03:39;101692.06;;;13.48;100.00
67840;BME280;54636;51.684;5.142;2022-08-21T06:06:07;101681.16;;;13.48;100.00
67840;BME280;54636;51.684;5.142;2022-08-21T06:08:33;101657.91;;;13.33;100.00
67840;BME280;54636;51.684;5.142;2022-08-21T06:11:02;101685.50;;;13.61;100.00
67840;BME280;54636;51.684;5.142;2022-08-21T06:13:28;101682.06;;;13.66;100.00
67840;BME280;54636;51.684;5.142;2022-08-21T06:16:13;101636.81;;;13.33;100.00
67840;BME280;54636;51.684;5.142;2022-08-21T06:18:39;101668.66;;;13.62;100.00
67840;BME280;54636;51.684;5.142;2022-08-21T06:21:06;101720.91;;;14.01;100.00
67840;BME280;54636;51.684;5.142;2022-08-21T06:23:32;101659.00;;;13.67;100.00
67840;BME280;54636;51.684;5.142;2022-08-21T06:25:58;101652.03;;;13.66;100.00
67840;BME280;54636;51.684;5.142;2022-08-21T06:28:24;101642.59;;;13.61;100.00
67840;BME280;54636;51.684;5.142;2022-08-21T06:30:49;101697.34;;;14.04;100.00
67840;BME280;54636;51.684;5.142;2022-08-21T06:33:17;101655.69;;;13.83;100.00
67840;BME280;54636;51.684;5.142;2022-08-21T06:35:42;101726.72;;;14.40;100.00
67840;BME280;54636;51.684;5.142;2022-08-21T06:38:10;101683.63;;;14.24;100.00
67840;BME280;54636;51.684;5.142;2022-08-21T06:40:36;101652.75;;;14.18;100.00
67840;BME280;54636;51.684;5.142;2022-08-21T06:43:08;101661.00;;;14.24;100.00
67840;BME280;54636;51.684;5.142;2022-08-21T06:45:39;101678.22;;;14.67;100.00
67840;BME280;54636;51.684;5.142;2022-08-21T06:48:12;101684.88;;;15.68;97.27
67840;BME280;54636;51.684;5.142;2022-08-21T06:50:40;101706.34;;;16.70;90.92
67840;BME280;54636;51.684;5.142;2022-08-21T06:53:11;101690.47;;;17.26;86.80
67840;BME280;54636;51.684;5.142;2022-08-21T06:55:38;101692.56;;;17.97;83.95
67840;BME280;54636;51.684;5.142;2022-08-21T06:58:05;101677.81;;;18.30;81.58
67840;BME280;54636;51.684;5.142;2022-08-21T07:00:31;101656.16;;;18.45;80.15
67840;BME280;54636;51.684;5.142;2022-08-21T07:02:57;101704.78;;;18.86;79.32
67840;BME280;54636;51.684;5.142;2022-08-21T07:05:27;101650.13;;;18.47;80.03
67840;BME280;54636;51.684;5.142;2022-08-21T07:07:53;101702.50;;;18.65;80.22
67840;BME280;54636;51.684;5.142;2022-08-21T07:10:18;101651.38;;;18.21;80.09
67840;BME280;54636;51.684;5.142;2022-08-21T07:12:44;101659.03;;;18.04;81.94
67840;BME280;54636;51.684;5.142;2022-08-21T07:15:10;101646.31;;;17.65;82.85
67840;BME280;54636;51.684;5.142;2022-08-21T07:17:36;101699.00;;;17.69;84.49
67840;BME280;54636;51.684;5.142;2022-08-21T07:20:03;101728.47;;;17.63;86.79
67840;BME280;54636;51.684;5.142;2022-08-21T07:22:29;101675.03;;;17.18;87.84
67840;BME280;54636;51.684;5.142;2022-08-21T07:24:55;101698.91;;;17.34;88.34
67840;BME280;54636;51.684;5.142;2022-08-21T07:27:20;101688.00;;;17.17;89.29
67840;BME280;54636;51.684;5.142;2022-08-21T07:29:48;101699.69;;;17.29;89.67
67840;BME280;54636;51.684;5.142;2022-08-21T07:32:13;101689.41;;;17.40;87.87
67840;BME280;54636;51.684;5.142;2022-08-21T07:34:42;101650.59;;;17.08;89.47
67840;BME280;54636;51.684;5.142;2022-08-21T07:37:07;101685.19;;;17.34;89.29
67840;BME280;54636;51.684;5.142;2022-08-21T07:39:33;101664.22;;;17.31;88.26
67840;BME280;54636;51.684;5.142;2022-08-21T07:41:58;101681.66;;;17.44;88.02
67840;BME280;54636;51.684;5.142;2022-08-21T07:44:24;101694.75;;;17.68;88.85
67840;BME280;54636;51.684;5.142;2022-08-21T07:46:52;101688.44;;;17.79;87.65
67840;BME280;54636;51.684;5.142;2022-08-21T07:49:18;101728.31;;;18.27;86.78
67840;BME280;54636;51.684;5.142;2022-08-21T07:51:43;101672.78;;;18.04;85.48
67840;BME280;54636;51.684;5.142;2022-08-21T07:54:09;101667.25;;;18.09;85.13
67840;BME280;54636;51.684;5.142;2022-08-21T07:56:34;101680.72;;;18.37;84.91
67840;BME280;54636;51.684;5.142;2022-08-21T07:59:03;101708.19;;;18.73;84.41
67840;BME280;54636;51.684;5.142;2022-08-21T08:01:29;101716.88;;;19.01;82.65
67840;BME280;54636;51.684;5.142;2022-08-21T08:03:55;101668.56;;;18.82;82.07
67840;BME280;54636;51.684;5.142;2022-08-21T08:06:21;101672.22;;;18.90;81.12
67840;BME280;54636;51.684;5.142;2022-08-21T08:08:48;101655.34;;;18.99;80.98
67840;BME280;54636;51.684;5.142;2022-08-21T08:11:13;101653.13;;;19.16;80.10
67840;BME280;54636;51.684;5.142;2022-08-21T08:13:47;101682.69;;;19.53;78.75
67840;BME280;54636;51.684;5.142;2022-08-21T08:16:13;101663.47;;;19.48;78.18
67840;BME280;54636;51.684;5.142;2022-08-21T08:18:39;101661.84;;;19.58;77.92
67840;BME280;54636;51.684;5.142;2022-08-21T08:21:05;101676.56;;;19.79;76.84
67840;BME280;54636;51.684;5.142;2022-08-21T08:23:31;101678.50;;;19.84;76.98
67840;BME280;54636;51.684;5.142;2022-08-21T08:25:57;101713.94;;;20.25;76.15
67840;BME280;54636;51.684;5.142;2022-08-21T08:28:26;101644.94;;;19.99;76.16
67840;BME280;54636;51.684;5.142;2022-08-21T08:30:52;101649.59;;;20.04;75.41
67840;BME280;54636;51.684;5.142;2022-08-21T08:33:20;101675.75;;;20.29;74.33
67840;BME280;54636;51.684;5.142;2022-08-21T08:35:49;101644.00;;;20.23;74.18
67840;BME280;54636;51.684;5.142;2022-08-21T08:38:17;101660.50;;;20.42;74.37
67840;BME280;54636;51.684;5.142;2022-08-21T08:40:51;101700.63;;;20.95;73.52
67840;BME280;54636;51.684;5.142;2022-08-21T08:43:19;101708.50;;;21.04;72.31
67840;BME280;54636;51.684;5.142;2022-08-21T08:45:48;101667.41;;;20.88;71.94
67840;BME280;54636;51.684;5.142;2022-08-21T08:48:28;101703.19;;;21.20;72.80
67840;BME280;54636;51.684;5.142;2022-08-21T08:50:56;101647.44;;;20.95;71.85
67840;BME280;54636;51.684;5.142;2022-08-21T08:53:47;101696.41;;;21.55;71.22
67840;BME280;54636;51.684;5.142;2022-08-21T08:56:14;101693.66;;;21.55;69.34
67840;BME280;54636;51.684;5.142;2022-08-21T08:58:43;101647.72;;;21.31;69.68
67840;BME280;54636;51.684;5.142;2022-08-21T09:01:16;101615.09;;;21.16;69.79
67840;BME280;54636;51.684;5.142;2022-08-21T09:03:42;101695.75;;;21.62;70.09
67840;BME280;54636;51.684;5.142;2022-08-21T09:09:14;101695.56;;;21.81;68.34
67840;BME280;54636;51.684;5.142;2022-08-21T09:11:45;101688.31;;;21.91;68.08
67840;BME280;54636;51.684;5.142;2022-08-21T09:17:07;101686.69;;;22.16;67.67
67840;BME280;54636;51.684;5.142;2022-08-21T09:22:32;101632.09;;;21.96;67.76
67840;BME280;54636;51.684;5.142;2022-08-21T09:25:04;101687.66;;;22.47;67.14
67840;BME280;54636;51.684;5.142;2022-08-21T09:27:33;101682.72;;;22.53;64.96
67840;BME280;54636;51.684;5.142;2022-08-21T09:29:58;101656.84;;;22.22;65.22
67840;BME280;54636;51.684;5.142;2022-08-21T09:32:28;101684.75;;;22.53;65.53
67840;BME280;54636;51.684;5.142;2022-08-21T09:35:18;101650.13;;;22.39;65.62
67840;BME280;54636;51.684;5.142;2022-08-21T09:43:04;101669.53;;;23.03;63.07
67840;BME280;54636;51.684;5.142;2022-08-21T09:45:31;101663.13;;;23.16;60.51
67840;BME280;54636;51.684;5.142;2022-08-21T09:48:23;101701.06;;;23.36;60.95
67840;BME280;54636;51.684;5.142;2022-08-21T09:50:50;101664.09;;;22.90;60.32
67840;BME280;54636;51.684;5.142;2022-08-21T09:53:20;101683.59;;;23.13;60.21
67840;BME280;54636;51.684;5.142;2022-08-21T09:55:50;101695.88;;;23.40;61.77
67840;BME280;54636;51.684;5.142;2022-08-21T09:58:38;101696.88;;;23.58;58.46
67840;BME280;54636;51.684;5.142;2022-08-21T10:01:22;101661.16;;;23.47;58.00
67840;BME280;54636;51.684;5.142;2022-08-21T10:04:02;101660.03;;;23.42;59.29
67840;BME280;54636;51.684;5.142;2022-08-21T10:06:28;101674.72;;;23.73;58.66
67840;BME280;54636;51.684;5.142;2022-08-21T10:09:23;101672.00;;;23.96;58.63
67840;BME280;54636;51.684;5.142;2022-08-21T10:12:21;101691.97;;;24.48;56.80
67840;BME280;54636;51.684;5.142;2022-08-21T10:15:00;101689.34;;;24.57;56.04
67840;BME280;54636;51.684;5.142;2022-08-21T10:17:41;101662.34;;;24.20;54.25
67840;BME280;54636;51.684;5.142;2022-08-21T10:20:18;101623.88;;;23.71;54.19
67840;BME280;54636;51.684;5.142;2022-08-21T10:23:07;101678.06;;;24.17;53.39
67840;BME280;54636;51.684;5.142;2022-08-21T10:25:38;101685.13;;;24.41;53.16
67840;BME280;54636;51.684;5.142;2022-08-21T10:28:15;101649.41;;;24.38;51.91
67840;BME280;54636;51.684;5.142;2022-08-21T10:31:11;101683.06;;;24.57;52.92
67840;BME280;54636;51.684;5.142;2022-08-21T10:33:46;101646.63;;;24.38;51.90
67840;BME280;54636;51.684;5.142;2022-08-21T10:36:22;101641.75;;;24.61;53.37
67840;BME280;54636;51.684;5.142;2022-08-21T10:42:17;101653.75;;;24.71;53.52
67840;BME280;54636;51.684;5.142;2022-08-21T10:45:08;101673.13;;;25.02;52.22
67840;BME280;54636;51.684;5.142;2022-08-21T10:48:13;101673.53;;;24.75;52.58
67840;BME280;54636;51.684;5.142;2022-08-21T10:56:26;101649.59;;;23.94;53.74
67840;BME280;54636;51.684;5.142;2022-08-21T10:59:14;101674.19;;;23.90;53.03
67840;BME280;54636;51.684;5.142;2022-08-21T11:01:50;101661.97;;;23.70;53.97
67840;BME280;54636;51.684;5.142;2022-08-21T11:06:59;101673.66;;;23.99;53.42
67840;BME280;54636;51.684;5.142;2022-08-21T11:09:26;101666.22;;;24.17;52.01
67840;BME280;54636;51.684;5.142;2022-08-21T11:12:05;101670.47;;;24.48;51.78
67840;BME280;54636;51.684;5.142;2022-08-21T11:17:12;101666.75;;;24.61;50.06
67840;BME280;54636;51.684;5.142;2022-08-21T11:19:48;101659.34;;;24.56;49.07
67840;BME280;54636;51.684;5.142;2022-08-21T11:22:40;101659.34;;;24.63;50.16
67840;BME280;54636;51.684;5.142;2022-08-21T11:30:04;101642.97;;;25.31;49.06
67840;BME280;54636;51.684;5.142;2022-08-21T11:32:57;101650.69;;;25.72;48.73
67840;BME280;54636;51.684;5.142;2022-08-21T11:35:42;101663.16;;;25.88;48.24
67840;BME280;54636;51.684;5.142;2022-08-21T11:38:33;101666.28;;;25.92;46.31
67840;BME280;54636;51.684;5.142;2022-08-21T11:43:43;101650.91;;;25.59;47.10
67840;BME280;54636;51.684;5.142;2022-08-21T11:51:46;101667.88;;;25.46;48.01
67840;BME280;54636;51.684;5.142;2022-08-21T11:54:29;101656.50;;;25.26;48.19
67840;BME280;54636;51.684;5.142;2022-08-21T11:57:02;101666.88;;;25.34;45.83
67840;BME280;54636;51.684;5.142;2022-08-21T11:59:39;101656.63;;;25.36;47.08
67840;BME280;54636;51.684;5.142;2022-08-21T12:02:12;101658.19;;;25.54;46.32
67840;BME280;54636;51.684;5.142;2022-08-21T12:04:48;101665.78;;;25.54;47.64
67840;BME280;54636;51.684;5.142;2022-08-21T12:10:12;101665.91;;;25.71;45.19
67840;BME280;54636;51.684;5.142;2022-08-21T12:12:40;101668.78;;;25.48;44.31
67840;BME280;54636;51.684;5.142;2022-08-21T12:15:24;101667.19;;;25.38;45.94
67840;BME280;54636;51.684;5.142;2022-08-21T12:18:27;101667.97;;;25.63;45.99
67840;BME280;54636;51.684;5.142;2022-08-21T12:23:59;101667.38;;;25.72;43.54
67840;BME280;54636;51.684;5.142;2022-08-21T12:26:53;101661.47;;;25.60;44.13
67840;BME280;54636;51.684;5.142;2022-08-21T12:29:31;101668.84;;;25.73;45.13
67840;BME280;54636;51.684;5.142;2022-08-21T12:32:22;101661.88;;;25.57;44.61
67840;BME280;54636;51.684;5.142;2022-08-21T12:35:01;101671.91;;;25.52;44.58
67840;BME280;54636;51.684;5.142;2022-08-21T12:37:50;101670.09;;;25.15;45.10
67840;BME280;54636;51.684;5.142;2022-08-21T12:40:30;101668.47;;;25.04;43.82
67840;BME280;54636;51.684;5.142;2022-08-21T12:42:59;101672.16;;;25.14;42.74
67840;BME280;54636;51.684;5.142;2022-08-21T12:45:44;101665.16;;;24.98;42.91
67840;BME280;54636;51.684;5.142;2022-08-21T12:48:15;101665.91;;;24.99;44.33
67840;BME280;54636;51.684;5.142;2022-08-21T12:50:55;101675.44;;;25.20;43.55
67840;BME280;54636;51.684;5.142;2022-08-21T12:53:37;101672.97;;;25.32;44.13
67840;BME280;54636;51.684;5.142;2022-08-21T12:56:09;101663.22;;;25.48;43.48
67840;BME280;54636;51.684;5.142;2022-08-21T12:58:35;101685.88;;;25.77;43.81
67840;BME280;54636;51.684;5.142;2022-08-21T13:01:29;101688.34;;;25.98;43.35
67840;BME280;54636;51.684;5.142;2022-08-21T13:04:01;101677.03;;;25.96;42.10
67840;BME280;54636;51.684;5.142;2022-08-21T13:06:29;101660.22;;;25.86;42.45
67840;BME280;54636;51.684;5.142;2022-08-21T13:09:03;101678.97;;;25.86;42.31
67840;BME280;54636;51.684;5.142;2022-08-21T13:11:29;101670.50;;;25.76;42.46
67840;BME280;54636;51.684;5.142;2022-08-21T13:13:56;101675.06;;;25.56;42.35
67840;BME280;54636;51.684;5.142;2022-08-21T13:16:26;101678.75;;;25.59;42.83
67840;BME280;54636;51.684;5.142;2022-08-21T13:19:05;101672.25;;;25.64;43.19
67840;BME280;54636;51.684;5.142;2022-08-21T13:21:34;101677.19;;;25.73;44.03
67840;BME280;54636;51.684;5.142;2022-08-21T13:26:37;101674.47;;;25.58;43.20
67840;BME280;54636;51.684;5.142;2022-08-21T13:29:08;101679.28;;;25.65;44.46
67840;BME280;54636;51.684;5.142;2022-08-21T13:31:36;101670.56;;;25.61;43.28
67840;BME280;54636;51.684;5.142;2022-08-21T13:34:03;101675.97;;;25.59;43.08
67840;BME280;54636;51.684;5.142;2022-08-21T13:36:32;101680.31;;;25.45;44.66
67840;BME280;54636;51.684;5.142;2022-08-21T13:38:59;101679.91;;;25.16;45.15
67840;BME280;54636;51.684;5.142;2022-08-21T13:41:30;101668.13;;;25.00;45.58
67840;BME280;54636;51.684;5.142;2022-08-21T13:44:17;101669.38;;;25.14;45.08
67840;BME280;54636;51.684;5.142;2022-08-21T13:46:44;101662.50;;;25.15;44.95
67840;BME280;54636;51.684;5.142;2022-08-21T13:49:13;101666.63;;;25.39;45.22
67840;BME280;54636;51.684;5.142;2022-08-21T13:51:40;101667.66;;;25.51;43.67